x

Buoy B01 - Western Maine Shelf (44030) Wave Buoy

11:04pm - Wed 29th Jun 2016 All times are EDT. -4 hours from GMT.

  • Sig Wave height 3.0ft
  • Peak Period 8s
  • Wind
    7mph, 9mph gusts
  • Sea Temp 57°f
  • 空気 Temp 58°f
  • Sea Pressure 1011.4mb
  • Buoy B01 - Western Maine Shelf
  • Buoy B01 - Western Maine Shelf

More Historic Weather Station data

Upgrade to MSW Pro to gain access to the past 30 days of data for over 8000 Wavebouys and Weather Stations around the globe.

Join Pro

Comparision Forecast

View Surf forecast
   
Wed 06/29 11:04pm 3ft 8s 7 9 mph 1011.4mb 57f 58f
10:04pm 2.5ft 8s 7
mph
1011.1mb 57f 59f
9:04pm 3ft 8s 4
mph
1010.5mb 57f 59f
8:04pm 3.5ft 6s 2 4 mph 1010.2mb 57f 62f
7:04pm 3ft 8s 4 7 mph 1009.7mb 57f 60f
6:04pm 3ft 8s 13
mph
1009.7mb 58f 62f
5:04pm 2.5ft 6s 9 11 mph 1009.7mb 58f 61f
4:04pm 2.5ft 8s 9
mph
1010.4mb 57f 62f
3:04pm 2.5ft 8s 7 11 mph 1010.6mb 57f 62f
2:04pm 2ft 8s 7
mph
1010.4mb 57f 60f
1:04pm 2.5ft 8s 9
mph
1010.5mb 56f 60f
12:04pm 2.5ft 8s 7 9 mph 1011.1mb 56f 59f
11:04am 2ft 4s 9
mph
1011.3mb 56f 59f
10:04am 2.5ft 8s 4 7 mph 1011.6mb 56f 58f
9:04am 2ft 8s 4
mph
1011.6mb 56f 58f
8:04am 2.5ft 8s 7
mph
1011.4mb 56f 58f
7:04am 2.5ft 8s 9
mph
1011.1mb 56f 58f
6:04am 2.5ft 8s 9 11 mph 1011.3mb 55f 59f
5:04am 2ft 8s 11
mph
1011.3mb 55f 59f
4:04am 2.5ft 6s 9
mph
1011.5mb 55f 59f
3:04am 2.5ft 8s 7 9 mph 1011.8mb 55f 59f
2:04am 2.5ft 8s 7 9 mph 1012.2mb 55f 59f
1:04am 2.5ft 8s 4 7 mph 1012.7mb 55f 58f
12:04am 2.5ft 8s 9 11 mph 1012.8mb 55f 59f
Tue 06/28 11:04pm 2.5ft 8s 7 9 mph 1013.2mb 55f 59f
10:04pm 2.5ft 8s 9 11 mph 1013.2mb 56f 59f
9:04pm 2.5ft 5s 9 11 mph 1013mb 56f 60f
8:04pm 2.5ft 8s 13 16 mph 1013mb 56f 60f
7:04pm  -   -  11 13 mph 1012.9mb 56f 60f
6:04pm 3ft 5s 11 13 mph 1012.7mb 56f 61f
5:04pm 3.5ft 5s 11 13 mph 1013mb 56f 61f
4:04pm 3ft 8s 11 13 mph 1013.3mb 56f 61f
3:04pm 2.5ft 8s 11
mph
1013.9mb 56f 60f
2:04pm 2.5ft 5s 9
mph
1014.5mb 55f 59f
1:04pm 2.5ft 5s 11
mph
1015.1mb 55f 59f
12:04pm 3ft 5s 11 16 mph 1015.5mb 55f 60f
11:04am 2.5ft 5s 7 9 mph 1015.5mb 54f 58f
10:04am 2.5ft 5s 4
mph
1015.7mb 54f 58f
9:04am 2.5ft 5s 11
mph
1015.8mb 55f 58f
8:04am 2.5ft 5s 13 16 mph 1015.5mb 55f 59f
7:04am 3ft 5s 13 16 mph 1015.3mb 55f 59f
6:04am 3ft 5s 13 16 mph 1014.6mb 55f 59f
5:04am 3.5ft 8s 13 16 mph 1014.5mb 55f 59f
4:04am 3.5ft 5s 13 16 mph 1014.1mb 55f 60f
3:04am 3.5ft 5s 18 20 mph 1014.5mb 55f 60f
2:04am 4ft 6s 18 20 mph 1014.8mb 55f 60f
1:04am 4.5ft 5s 18
mph
1015.1mb 55f 60f
12:04am 4.5ft 5s 18 20 mph 1015.3mb 55f 61f
Mon 06/27 11:04pm 4.5ft 5s 18 22 mph 1015.3mb 56f 61f
10:04pm 4.5ft 5s 20 22 mph 1015.4mb 56f 62f
9:04pm 4.5ft 5s 16 18 mph 1014.9mb 56f 62f
8:04pm 4.5ft 5s 16 18 mph 1014.5mb 57f 62f
7:04pm 4.5ft 5s 18 22 mph 1014.2mb 56f 63f
6:04pm 5ft 5s 20 25 mph 1014mb 56f 64f
5:04pm 5ft 8s 20 22 mph 1014.1mb 58f 64f
4:04pm 5ft 8s 20 22 mph 1014.5mb 58f 64f
3:04pm 4.5ft 8s 18 22 mph 1014.9mb 59f 64f
2:04pm 4ft 5s 20 22 mph 1015.4mb 59f 64f
1:04pm 3.5ft 8s 18 20 mph 1016.1mb 59f 63f
12:04pm 3.5ft 8s 16 18 mph 1016.7mb 60f 63f
11:04am 3.5ft 8s 13 16 mph 1017.1mb 60f 62f
10:04am 3.5ft 8s 13 16 mph 1017.3mb 59f 62f
9:04am 3.5ft 5s 13 16 mph 1017.7mb 59f 61f
8:04am 3.5ft 5s 13 16 mph 1017.8mb 60f 61f
7:04am 2.5ft 5s 16 18 mph 1017.9mb 60f 61f
6:04am 2.5ft 5s 13 16 mph 1017.8mb 60f 62f
5:04am 2.5ft 8s 13
mph
1017.6mb 60f 61f
4:04am 2.5ft 8s 11 13 mph 1017.3mb 60f 61f
3:04am 2.5ft 8s 11
mph
1017.5mb 59f 62f
2:04am 2.5ft 5s 9 11 mph 1017.8mb 60f 61f
1:04am 3ft 8s 11 13 mph 1018mb 60f 62f
12:04am 3ft 4s 11 13 mph 1018.6mb 60f 63f
Sun 06/26 11:04pm 2.5ft 4s 13
mph
1018.6mb 60f 63f
10:04pm 3ft 8s 13 16 mph 1018.9mb 59f 63f
9:04pm 2.5ft 4s 11 13 mph 1018.8mb 60f 63f
8:04pm 2.5ft 4s 11
mph
1019.2mb 60f 63f
7:04pm 2.5ft 4s 11
mph
1019.5mb 60f 64f
6:04pm 2ft 4s 9 11 mph 1020mb 60f 63f
5:04pm 2ft 3s 13 16 mph 1020.7mb 60f 63f
4:04pm 2.5ft 8s 13
mph
1021mb 60f 63f
3:04pm 2.5ft 8s 11
mph
1021.6mb 60f 63f
2:04pm 2.5ft 8s 9
mph
1021.9mb 60f 62f
1:04pm 1.6ft 8s 9 11 mph 1022.2mb 60f 62f
12:04pm 2ft 8s 9
mph
1022.8mb 61f 62f
11:04am 1.6ft 8s 4 7 mph 1022.9mb 60f 62f
10:04am 1.6ft 8s 4 7 mph 1022.7mb 60f 61f
9:04am 1.6ft 8s 7
mph
1023.4mb 59f 60f
8:04am 2ft 8s 4
mph
1023.2mb 58f 60f
7:04am 2ft 8s 4
mph
1022.8mb 58f 61f
6:04am 2ft 8s 4
mph
1022.6mb 59f 60f
5:04am 2ft 8s 7
mph
1022.9mb 59f 59f